Time;durP1;ratioP1;P1;durP2;ratioP2;P2;SDS_P1;SDS_P2;PMS_P1;PMS_P2;Temp;Humidity;BMP_temperature;BMP_pressure;BME280_temperature;BME280_humidity;BME280_pressure;Samples;Min_cycle;Max_cycle;Signal;HPM_P1;HPM_P2
2021/12/10 00:01:34;;;;;;;7.22;2.78;;;3.30;88.90;;;;;;4956436;28;20184;-73
2021/12/10 00:04:01;;;;;;;10.68;3.03;;;3.20;89.20;;;;;;4931859;28;20220;-73
2021/12/10 00:06:39;;;;;;;6.80;2.83;;;3.20;89.50;;;;;;4937825;28;20202;-72
2021/12/10 00:09:16;;;;;;;4.20;2.78;;;3.10;89.30;;;;;;4936133;28;20219;-72
2021/12/10 00:11:47;;;;;;;7.18;3.22;;;3.10;89.20;;;;;;4939869;28;20203;-71
2021/12/10 00:14:13;;;;;;;10.25;4.10;;;3.10;89.60;;;;;;4939130;28;20188;-71
2021/12/10 00:16:41;;;;;;;7.25;3.45;;;3.00;89.50;;;;;;4935171;28;20270;-72
2021/12/10 00:19:44;;;;;;;5.15;3.03;;;3.00;89.70;;;;;;4940041;28;20710;-72
2021/12/10 00:22:06;;;;;;;6.43;2.72;;;2.90;89.60;;;;;;4942798;28;20192;-72
2021/12/10 00:24:32;;;;;;;7.03;2.88;;;2.80;89.70;;;;;;4922969;28;20243;-73
2021/12/10 00:27:03;;;;;;;7.10;2.80;;;2.80;90.10;;;;;;4949162;28;20192;-71
2021/12/10 00:29:29;;;;;;;4.43;2.30;;;2.70;90.10;;;;;;4949366;28;20604;-73
2021/12/10 00:32:02;;;;;;;4.30;2.63;;;2.80;90.20;;;;;;4947405;28;20284;-72
2021/12/10 00:34:38;;;;;;;3.80;2.63;;;2.80;90.10;;;;;;5011129;28;20610;-75
2021/12/10 00:37:08;;;;;;;5.60;2.83;;;2.70;89.90;;;;;;4965097;28;20408;-74
2021/12/10 00:39:39;;;;;;;6.88;2.97;;;2.70;90.00;;;;;;4987372;28;20207;-72
2021/12/10 00:42:08;;;;;;;6.15;3.05;;;2.70;90.20;;;;;;4979854;28;20187;-72
2021/12/10 00:44:34;;;;;;;5.30;2.58;;;2.70;90.10;;;;;;4971186;28;20184;-69
2021/12/10 00:47:00;;;;;;;6.10;2.77;;;2.70;90.10;;;;;;4983375;28;20239;-70
2021/12/10 00:49:26;;;;;;;4.33;2.20;;;2.60;90.10;;;;;;5007075;28;20484;-69
2021/12/10 00:51:52;;;;;;;6.90;2.87;;;2.60;90.20;;;;;;4993895;28;20411;-71
2021/12/10 00:54:18;;;;;;;6.10;2.60;;;2.60;90.20;;;;;;5006240;28;20182;-71
2021/12/10 00:56:45;;;;;;;5.40;2.73;;;2.50;90.20;;;;;;5005028;28;20414;-74
2021/12/10 00:59:13;;;;;;;4.90;2.72;;;2.50;90.30;;;;;;5022940;28;20457;-70
2021/12/10 01:01:40;;;;;;;5.65;2.60;;;2.50;90.40;;;;;;5005207;28;20183;-73
2021/12/10 01:04:11;;;;;;;6.70;3.05;;;2.50;90.40;;;;;;4965499;28;20179;-71
2021/12/10 01:06:39;;;;;;;7.43;2.63;;;2.50;90.40;;;;;;4974762;28;20184;-72
2021/12/10 01:09:11;;;;;;;7.32;2.65;;;2.50;90.40;;;;;;5041995;28;20207;-71
2021/12/10 01:11:43;;;;;;;8.43;3.00;;;2.50;90.40;;;;;;4980716;28;20309;-73
2021/12/10 01:14:21;;;;;;;6.55;3.03;;;2.40;90.70;;;;;;5014182;28;20190;-71
2021/12/10 01:25:13;;;;;;;4.28;2.15;;;2.30;91.20;;;;;;4968638;28;20185;-72
2021/12/10 01:27:43;;;;;;;5.95;2.53;;;2.30;91.10;;;;;;4972566;28;20240;-71
2021/12/10 01:30:19;;;;;;;6.63;3.88;;;2.30;91.10;;;;;;4977936;28;20608;-72
2021/12/10 01:32:50;;;;;;;3.95;2.42;;;2.30;91.20;;;;;;4970619;28;20191;-71
2021/12/10 01:35:21;;;;;;;6.72;3.03;;;2.30;91.30;;;;;;4971859;28;20203;-72
2021/12/10 01:37:51;;;;;;;6.95;3.10;;;2.30;91.40;;;;;;4971226;28;20215;-71
2021/12/10 01:40:21;;;;;;;5.60;2.72;;;2.30;91.50;;;;;;5007427;28;20265;-72
2021/12/10 01:42:49;;;;;;;4.22;2.47;;;2.20;91.60;;;;;;4964740;28;20680;-72
2021/12/10 01:45:26;;;;;;;6.22;2.35;;;2.20;91.60;;;;;;4966370;28;20184;-73
2021/12/10 01:47:58;;;;;;;7.30;3.10;;;2.20;91.60;;;;;;4974936;28;20202;-73
2021/12/10 01:50:25;;;;;;;4.85;2.30;;;2.10;91.60;;;;;;4967896;28;20271;-72
2021/12/10 01:52:54;;;;;;;4.47;2.47;;;2.10;91.60;;;;;;4969937;28;20195;-73
2021/12/10 01:55:22;;;;;;;6.53;2.70;;;2.00;91.70;;;;;;4966718;28;20199;-74
2021/12/10 01:57:50;;;;;;;7.68;3.00;;;1.90;91.80;;;;;;4961814;28;20309;-73
2021/12/10 02:00:19;;;;;;;5.53;2.65;;;2.00;92.00;;;;;;4963025;28;20191;-74
2021/12/10 02:02:46;;;;;;;4.35;2.45;;;2.00;91.90;;;;;;4969682;28;20206;-73
2021/12/10 02:05:13;;;;;;;4.78;2.60;;;1.90;92.00;;;;;;4970214;28;20677;-73
2021/12/10 02:07:39;;;;;;;4.72;2.80;;;1.90;92.10;;;;;;4967792;28;20357;-73
2021/12/10 02:10:09;;;;;;;8.57;3.17;;;1.80;92.20;;;;;;4964253;28;20289;-73
2021/12/10 02:12:34;;;;;;;5.88;2.70;;;1.80;92.30;;;;;;4971047;28;20443;-74
2021/12/10 02:15:03;;;;;;;7.27;2.90;;;1.80;92.50;;;;;;4996863;28;20180;-73
2021/12/10 02:17:35;;;;;;;6.60;2.88;;;1.80;92.50;;;;;;4965176;28;20603;-74
2021/12/10 02:20:17;;;;;;;7.25;2.55;;;1.90;92.40;;;;;;4960955;28;20184;-72
2021/12/10 02:22:44;;;;;;;8.55;2.53;;;1.90;92.30;;;;;;4969288;28;20273;-73
2021/12/10 02:25:12;;;;;;;5.95;2.88;;;1.80;92.30;;;;;;4967050;28;20176;-74
2021/12/10 02:27:38;;;;;;;7.45;2.78;;;1.80;92.30;;;;;;4969001;28;20712;-74
2021/12/10 02:30:09;;;;;;;5.20;2.37;;;1.80;92.20;;;;;;4970435;28;20183;-74
2021/12/10 02:32:35;;;;;;;5.90;2.80;;;1.80;92.10;;;;;;4968820;28;20433;-73
2021/12/10 02:35:01;;;;;;;6.27;2.90;;;1.80;92.10;;;;;;5022525;28;20183;-73
2021/12/10 02:37:26;;;;;;;5.80;2.90;;;1.70;92.00;;;;;;4966293;28;20210;-75
2021/12/10 02:39:52;;;;;;;9.07;2.97;;;1.70;92.00;;;;;;4965170;28;20215;-74
2021/12/10 02:42:18;;;;;;;3.60;2.73;;;1.70;91.90;;;;;;4966812;28;20601;-72
2021/12/10 02:44:45;;;;;;;4.63;2.40;;;1.60;91.80;;;;;;4971333;28;20176;-74
2021/12/10 02:47:10;;;;;;;5.95;3.10;;;1.50;92.00;;;;;;4968764;28;20462;-73
2021/12/10 02:49:37;;;;;;;3.97;2.37;;;1.50;92.20;;;;;;4970960;28;20575;-74
2021/12/10 02:52:05;;;;;;;6.70;2.53;;;1.50;92.10;;;;;;4970604;28;20231;-74
2021/12/10 02:54:34;;;;;;;4.68;2.30;;;1.50;92.20;;;;;;5003863;28;20551;-72
2021/12/10 02:57:12;;;;;;;6.18;2.35;;;1.50;92.20;;;;;;5018068;28;20199;-73
2021/12/10 02:59:39;;;;;;;6.43;2.03;;;1.50;92.10;;;;;;5048879;28;20203;-72
2021/12/10 03:02:08;;;;;;;3.92;2.20;;;1.50;92.00;;;;;;5062092;28;20233;-73
2021/12/10 03:04:34;;;;;;;4.85;2.30;;;1.50;92.10;;;;;;5036366;28;20180;-73
2021/12/10 03:07:07;;;;;;;3.30;1.85;;;1.60;92.10;;;;;;4980932;28;20184;-75
2021/12/10 03:09:33;;;;;;;9.35;2.53;;;1.70;91.80;;;;;;4986384;28;20225;-75
2021/12/10 03:12:00;;;;;;;9.43;2.90;;;1.70;91.60;;;;;;4988994;28;20176;-76
2021/12/10 03:14:33;;;;;;;13.55;2.83;;;1.60;91.50;;;;;;4991313;28;20433;-72
2021/12/10 03:17:02;;;;;;;4.10;2.25;;;1.60;91.60;;;;;;4970243;28;20210;-74
2021/12/10 03:19:29;;;;;;;7.10;2.50;;;1.50;91.70;;;;;;4971227;28;20704;-74
2021/12/10 03:21:55;;;;;;;4.82;2.20;;;1.50;91.70;;;;;;4963070;28;20203;-72
2021/12/10 03:24:24;;;;;;;7.13;2.67;;;1.50;91.70;;;;;;4963903;28;20210;-73
2021/12/10 03:26:52;;;;;;;8.00;2.97;;;1.50;91.70;;;;;;4962418;28;20203;-73
2021/12/10 03:29:20;;;;;;;3.45;2.78;;;1.50;91.60;;;;;;4965303;28;20339;-72
2021/12/10 03:31:46;;;;;;;4.93;2.47;;;1.40;91.70;;;;;;4960458;28;20191;-72
2021/12/10 03:34:12;;;;;;;5.70;2.80;;;1.50;91.90;;;;;;4965695;28;20218;-72
2021/12/10 03:36:45;;;;;;;7.67;2.63;;;1.40;91.80;;;;;;4957871;28;20654;-71
2021/12/10 03:39:16;;;;;;;5.22;2.47;;;1.40;91.70;;;;;;4965645;28;20223;-73
2021/12/10 03:41:42;;;;;;;10.32;3.85;;;1.40;91.80;;;;;;4961048;28;20179;-73
2021/12/10 03:44:09;;;;;;;6.07;2.50;;;1.40;91.60;;;;;;4963995;28;20203;-73
2021/12/10 03:46:35;;;;;;;11.07;3.28;;;1.30;91.70;;;;;;4960571;28;20180;-73
2021/12/10 03:49:03;;;;;;;9.23;3.00;;;1.20;91.70;;;;;;4962379;28;20252;-71
2021/12/10 03:51:30;;;;;;;5.75;3.08;;;1.20;91.80;;;;;;4961515;28;20187;-73
2021/12/10 03:53:57;;;;;;;3.95;2.95;;;1.20;91.90;;;;;;4960665;28;20191;-74
2021/12/10 03:56:26;;;;;;;4.10;2.30;;;1.20;91.90;;;;;;4963395;28;20191;-72
2021/12/10 03:58:54;;;;;;;6.40;2.65;;;1.20;91.90;;;;;;4958228;28;20207;-74
2021/12/10 04:01:24;;;;;;;7.57;2.67;;;1.30;92.00;;;;;;4974695;28;20184;-73
2021/12/10 04:03:51;;;;;;;7.57;2.78;;;1.30;91.90;;;;;;4963695;28;20274;-74
2021/12/10 04:06:18;;;;;;;5.55;2.30;;;1.30;91.90;;;;;;4960660;28;20180;-71
2021/12/10 04:08:43;;;;;;;9.07;2.50;;;1.30;91.90;;;;;;4955061;28;20208;-72
2021/12/10 04:11:10;;;;;;;8.53;3.27;;;1.30;91.90;;;;;;4961647;28;20699;-73
2021/12/10 04:13:37;;;;;;;4.45;2.80;;;1.30;91.60;;;;;;5010183;28;20442;-73
2021/12/10 04:16:03;;;;;;;8.70;3.17;;;1.40;91.30;;;;;;4957740;28;20180;-73
2021/12/10 04:18:31;;;;;;;12.70;5.50;;;1.30;91.00;;;;;;4955642;28;20220;-72
2021/12/10 04:20:57;;;;;;;6.57;3.08;;;1.30;90.90;;;;;;4977329;28;20204;-73
2021/12/10 04:23:24;;;;;;;9.57;4.23;;;1.30;90.70;;;;;;4957731;28;20215;-74
2021/12/10 04:25:50;;;;;;;6.63;3.20;;;1.30;90.50;;;;;;4961841;28;20423;-72
2021/12/10 04:28:18;;;;;;;10.93;3.20;;;1.30;90.70;;;;;;4963424;28;20310;-74
2021/12/10 04:30:46;;;;;;;9.55;3.65;;;1.30;90.40;;;;;;4963018;28;20419;-72
2021/12/10 04:33:15;;;;;;;5.18;3.20;;;1.30;90.40;;;;;;4963586;28;20249;-74
2021/12/10 04:35:43;;;;;;;7.78;3.78;;;1.10;90.50;;;;;;4965814;28;20895;-74
2021/12/10 04:38:09;;;;;;;5.53;3.28;;;1.10;90.80;;;;;;4968367;28;20223;-74
2021/12/10 04:40:35;;;;;;;10.30;3.23;;;1.00;90.90;;;;;;4963170;28;20190;-73
2021/12/10 04:43:02;;;;;;;11.77;4.18;;;1.00;91.00;;;;;;4966891;28;20897;-75
2021/12/10 04:45:28;;;;;;;7.05;3.78;;;1.00;91.20;;;;;;4963360;28;20266;-73
2021/12/10 04:47:54;;;;;;;8.10;4.00;;;0.90;91.20;;;;;;4989688;28;20356;-74
2021/12/10 04:50:22;;;;;;;10.40;4.23;;;0.80;91.40;;;;;;4986926;28;20427;-72
2021/12/10 04:52:47;;;;;;;6.22;4.03;;;0.80;91.40;;;;;;4963599;28;20222;-72
2021/12/10 04:55:16;;;;;;;8.73;4.27;;;0.80;91.70;;;;;;4963262;28;20313;-74
2021/12/10 04:57:42;;;;;;;8.68;4.35;;;0.90;91.80;;;;;;4959522;28;20467;-73
2021/12/10 05:00:12;;;;;;;8.43;4.00;;;0.90;91.70;;;;;;4968310;28;20196;-73
2021/12/10 05:02:38;;;;;;;8.32;4.30;;;0.80;91.70;;;;;;4970414;28;20190;-73
2021/12/10 05:05:07;;;;;;;10.23;4.70;;;0.90;91.80;;;;;;5018217;28;20187;-73
2021/12/10 05:07:36;;;;;;;6.60;4.10;;;0.90;91.80;;;;;;4970462;28;20463;-73
2021/12/10 05:10:06;;;;;;;8.93;3.85;;;0.90;91.70;;;;;;4965833;28;20578;-74
2021/12/10 05:12:31;;;;;;;21.55;4.50;;;0.90;91.80;;;;;;4973425;28;20255;-74
2021/12/10 05:15:00;;;;;;;10.30;4.97;;;1.00;91.80;;;;;;4971630;28;20219;-73
2021/12/10 05:17:30;;;;;;;10.82;5.00;;;1.00;91.60;;;;;;4985480;28;20202;-74
2021/12/10 05:19:59;;;;;;;8.05;5.03;;;0.90;91.60;;;;;;4960053;28;20183;-72
2021/12/10 05:22:25;;;;;;;7.93;4.57;;;0.90;91.70;;;;;;4963981;28;20191;-72
2021/12/10 05:24:51;;;;;;;9.95;4.75;;;0.90;91.80;;;;;;4966825;28;20567;-75
2021/12/10 05:27:17;;;;;;;9.97;4.70;;;0.80;91.80;;;;;;4963866;28;20198;-73
2021/12/10 05:29:43;;;;;;;12.37;4.70;;;0.90;91.80;;;;;;4969018;28;20579;-73
2021/12/10 05:32:11;;;;;;;13.57;5.57;;;0.90;91.80;;;;;;4963095;28;20191;-72
2021/12/10 05:34:40;;;;;;;8.45;4.68;;;1.00;91.50;;;;;;4970695;28;20587;-72
2021/12/10 05:37:06;;;;;;;11.95;5.35;;;0.90;91.30;;;;;;4970771;28;20199;-73
2021/12/10 05:39:33;;;;;;;9.95;5.55;;;0.90;91.30;;;;;;4967282;28;20566;-74
2021/12/10 05:42:00;;;;;;;10.13;4.95;;;0.80;91.50;;;;;;4970620;28;20215;-73
2021/12/10 05:44:26;;;;;;;11.50;5.40;;;0.80;91.80;;;;;;4960663;28;20180;-72
2021/12/10 05:46:52;;;;;;;18.90;5.88;;;0.80;91.90;;;;;;4966051;28;20183;-74
2021/12/10 05:49:18;;;;;;;11.00;5.43;;;0.80;91.90;;;;;;5000406;28;20204;-74
2021/12/10 05:51:45;;;;;;;13.63;5.33;;;0.70;92.00;;;;;;4992593;28;20236;-72
2021/12/10 05:54:10;;;;;;;13.13;5.85;;;0.70;92.10;;;;;;4962539;28;20207;-73
2021/12/10 05:56:37;;;;;;;10.17;5.10;;;0.70;92.10;;;;;;4964310;28;20332;-73
2021/12/10 05:59:04;;;;;;;12.52;6.10;;;0.70;92.10;;;;;;4966424;28;20229;-73
2021/12/10 06:01:31;;;;;;;10.20;5.68;;;0.70;92.10;;;;;;4960124;28;20218;-74
2021/12/10 06:03:57;;;;;;;10.52;6.13;;;0.70;92.30;;;;;;4970130;28;20175;-73
2021/12/10 06:06:29;;;;;;;12.52;6.10;;;0.70;92.50;;;;;;4969360;28;20745;-73
2021/12/10 06:08:57;;;;;;;11.30;5.57;;;0.70;92.50;;;;;;4955609;28;20689;-74
2021/12/10 06:11:23;;;;;;;12.85;5.78;;;0.70;92.60;;;;;;4969851;28;20231;-73
2021/12/10 06:13:49;;;;;;;14.43;6.15;;;0.60;92.70;;;;;;4970338;28;20198;-72
2021/12/10 06:16:16;;;;;;;12.30;6.60;;;0.50;92.80;;;;;;4971643;28;20317;-74
2021/12/10 06:18:43;;;;;;;14.63;6.57;;;0.60;93.00;;;;;;4974853;28;20246;-74
2021/12/10 06:21:09;;;;;;;17.40;7.85;;;0.60;93.10;;;;;;4968034;28;20187;-74
2021/12/10 06:23:35;;;;;;;13.18;6.57;;;0.60;93.20;;;;;;4972641;28;20176;-72
2021/12/10 06:26:03;;;;;;;16.73;7.20;;;0.60;93.30;;;;;;4980883;28;20724;-75
2021/12/10 06:28:31;;;;;;;16.25;7.05;;;0.60;93.30;;;;;;4968753;28;20442;-74
2021/12/10 06:30:57;;;;;;;13.57;7.20;;;0.60;93.50;;;;;;4966792;28;20188;-73
2021/12/10 06:33:27;;;;;;;14.73;7.05;;;0.80;93.80;;;;;;4965693;28;20191;-73
2021/12/10 06:35:55;;;;;;;18.05;7.32;;;0.80;93.70;;;;;;4968851;28;20219;-73
2021/12/10 06:38:23;;;;;;;15.18;7.22;;;0.80;93.50;;;;;;4969786;28;20275;-73
2021/12/10 06:40:50;;;;;;;16.83;7.25;;;0.80;93.50;;;;;;4969601;28;20194;-74
2021/12/10 06:43:16;;;;;;;11.80;6.47;;;0.80;93.00;;;;;;4968802;28;20603;-74
2021/12/10 06:45:45;;;;;;;11.55;7.13;;;0.80;92.80;;;;;;4967696;28;20187;-74
2021/12/10 06:48:12;;;;;;;21.75;8.73;;;0.80;92.70;;;;;;4969605;28;20242;-72
2021/12/10 06:50:46;;;;;;;15.38;7.60;;;0.80;92.60;;;;;;4968666;28;20198;-72
2021/12/10 06:53:12;;;;;;;15.95;6.80;;;0.80;92.70;;;;;;4965236;28;20353;-74
2021/12/10 06:55:38;;;;;;;14.15;7.07;;;0.80;92.70;;;;;;4956158;28;20198;-72
2021/12/10 06:58:06;;;;;;;13.53;7.00;;;0.80;92.60;;;;;;4961769;28;20593;-72
2021/12/10 07:00:45;;;;;;;20.02;7.97;;;0.80;92.60;;;;;;4959632;28;20434;-74
2021/12/10 07:03:15;;;;;;;13.57;6.53;;;0.80;92.70;;;;;;4960328;28;20187;-73
2021/12/10 07:05:41;;;;;;;13.55;6.95;;;0.80;92.70;;;;;;4959326;28;20180;-72
2021/12/10 07:08:08;;;;;;;15.40;7.53;;;0.80;92.70;;;;;;4958253;28;20214;-72
2021/12/10 07:10:34;;;;;;;14.50;7.45;;;0.90;92.60;;;;;;4957608;28;20211;-74
2021/12/10 07:13:03;;;;;;;15.43;7.32;;;0.90;92.50;;;;;;4964077;28;20184;-73
2021/12/10 07:15:29;;;;;;;20.95;8.07;;;0.90;92.50;;;;;;4958807;28;20216;-74
2021/12/10 07:17:55;;;;;;;16.33;8.85;;;0.90;92.50;;;;;;4961580;28;20276;-74
2021/12/10 07:20:23;;;;;;;15.52;7.30;;;0.90;92.40;;;;;;4955133;28;20184;-73
2021/12/10 07:22:50;;;;;;;15.02;7.68;;;0.90;92.40;;;;;;4961414;28;20195;-73
2021/12/10 07:25:17;;;;;;;19.90;8.73;;;0.90;92.30;;;;;;4959699;28;20184;-74
2021/12/10 07:27:43;;;;;;;18.63;7.45;;;0.90;92.30;;;;;;4968324;28;20204;-73
2021/12/10 07:30:10;;;;;;;15.40;7.30;;;0.90;92.40;;;;;;4968301;28;20282;-73
2021/12/10 07:32:35;;;;;;;17.52;8.18;;;1.00;92.50;;;;;;4968595;28;20195;-73
2021/12/10 07:35:04;;;;;;;13.53;7.60;;;1.00;92.50;;;;;;4968699;28;20198;-72
2021/12/10 07:37:30;;;;;;;19.77;8.07;;;1.00;92.40;;;;;;4992365;28;20472;-73
2021/12/10 07:39:56;;;;;;;15.00;7.27;;;1.10;92.20;;;;;;4987962;28;20258;-73
2021/12/10 07:42:21;;;;;;;17.70;7.40;;;1.10;92.10;;;;;;4977744;28;20188;-76
2021/12/10 07:44:47;;;;;;;10.50;6.47;;;1.20;91.80;;;;;;4961980;28;20202;-78
2021/12/10 07:47:14;;;;;;;10.87;6.03;;;1.20;91.60;;;;;;4965616;28;20279;-76
2021/12/10 07:49:42;;;;;;;17.52;7.53;;;1.30;91.50;;;;;;4966944;28;20211;-75
2021/12/10 07:52:16;;;;;;;13.70;6.90;;;1.30;91.40;;;;;;4969042;28;20187;-76
2021/12/10 07:54:43;;;;;;;19.15;6.95;;;1.40;91.30;;;;;;4969099;28;20214;-77
2021/12/10 07:57:09;;;;;;;21.10;8.55;;;1.40;91.00;;;;;;4964689;28;20253;-77
2021/12/10 07:59:35;;;;;;;19.77;7.70;;;1.50;90.60;;;;;;4965546;28;20203;-75
2021/12/10 08:02:03;;;;;;;14.10;6.85;;;1.40;90.60;;;;;;4986762;28;20180;-74
2021/12/10 08:04:28;;;;;;;18.45;8.07;;;1.50;90.60;;;;;;5002472;28;20308;-77
2021/12/10 08:06:54;;;;;;;12.53;7.60;;;1.60;90.60;;;;;;4957946;28;20216;-72
2021/12/10 08:09:20;;;;;;;14.20;7.20;;;1.60;90.60;;;;;;5002077;28;20249;-73
2021/12/10 08:11:47;;;;;;;12.57;6.57;;;1.60;90.70;;;;;;4971879;28;20467;-74
2021/12/10 08:14:12;;;;;;;17.02;7.22;;;1.60;90.70;;;;;;4965495;28;20187;-73
2021/12/10 08:16:39;;;;;;;15.47;6.90;;;1.70;90.50;;;;;;4964926;28;20187;-74
2021/12/10 08:19:06;;;;;;;17.17;7.35;;;1.80;90.40;;;;;;4963833;28;20275;-72
2021/12/10 08:21:33;;;;;;;13.10;5.82;;;1.90;89.70;;;;;;4962428;28;20241;-73
2021/12/10 08:23:59;;;;;;;13.80;6.72;;;1.80;88.90;;;;;;4970240;28;20188;-74
2021/12/10 08:26:26;;;;;;;14.70;6.63;;;1.80;88.90;;;;;;4969810;28;20250;-73
2021/12/10 08:28:52;;;;;;;13.38;6.88;;;1.80;88.40;;;;;;4970248;28;20294;-72
2021/12/10 08:31:20;;;;;;;24.33;7.50;;;1.90;88.10;;;;;;4966212;28;20196;-72
2021/12/10 08:33:48;;;;;;;11.02;5.70;;;1.90;88.00;;;;;;4969606;28;20190;-73
2021/12/10 08:36:18;;;;;;;14.15;7.30;;;2.00;87.40;;;;;;4970532;28;20187;-72
2021/12/10 08:38:44;;;;;;;13.40;6.72;;;2.10;87.00;;;;;;4971561;28;20243;-74
2021/12/10 08:41:20;;;;;;;15.13;7.20;;;2.10;86.80;;;;;;4971542;28;20241;-74
2021/12/10 08:43:46;;;;;;;18.45;6.60;;;1.90;86.30;;;;;;4965415;28;20317;-75
2021/12/10 08:46:14;;;;;;;15.20;7.70;;;1.70;87.00;;;;;;4965433;28;20274;-74
2021/12/10 08:48:42;;;;;;;10.85;6.85;;;1.60;87.70;;;;;;4965365;28;20356;-73
2021/12/10 08:51:13;;;;;;;16.67;8.73;;;1.60;88.40;;;;;;4961286;28;20191;-72
2021/12/10 08:53:39;;;;;;;15.93;7.03;;;1.60;88.90;;;;;;4970286;28;20817;-71
2021/12/10 08:56:05;;;;;;;18.38;7.72;;;1.70;88.60;;;;;;5017544;28;20867;-73
2021/12/10 08:58:31;;;;;;;13.43;6.67;;;1.70;88.90;;;;;;4963620;28;20211;-73
2021/12/10 09:01:10;;;;;;;13.93;6.80;;;1.80;88.70;;;;;;4966159;28;20175;-73
2021/12/10 09:03:36;;;;;;;10.38;5.80;;;1.90;88.30;;;;;;4973245;28;20262;-73
2021/12/10 09:06:03;;;;;;;13.03;6.67;;;2.00;86.60;;;;;;5003249;28;20409;-75
2021/12/10 09:08:29;;;;;;;13.13;7.40;;;2.10;86.00;;;;;;5017436;28;20448;-72
2021/12/10 09:10:55;;;;;;;16.37;6.60;;;2.30;85.70;;;;;;4962529;28;20214;-73
2021/12/10 09:13:24;;;;;;;260.23;78.60;;;2.40;85.60;;;;;;4967843;28;20226;-72
2021/12/10 09:15:59;;;;;;;34.70;10.90;;;2.50;82.20;;;;;;5004062;28;20260;-72
2021/12/10 09:18:26;;;;;;;15.25;5.85;;;2.50;78.00;;;;;;4964166;28;20289;-74
2021/12/10 09:20:55;;;;;;;9.60;4.10;;;2.50;76.10;;;;;;4968372;28;20191;-74
2021/12/10 09:23:24;;;;;;;6.45;3.70;;;2.60;75.50;;;;;;4965037;28;20191;-73
2021/12/10 09:25:52;;;;;;;7.00;3.60;;;2.70;74.60;;;;;;4964545;28;20194;-75
2021/12/10 09:28:18;;;;;;;7.47;3.33;;;2.80;74.90;;;;;;4965625;28;20218;-72
2021/12/10 09:30:51;;;;;;;5.40;3.17;;;2.80;74.30;;;;;;4969862;28;20191;-73
2021/12/10 09:33:17;;;;;;;7.72;3.75;;;2.80;73.60;;;;;;4965167;28;20180;-74
2021/12/10 09:35:44;;;;;;;8.00;3.65;;;2.80;73.70;;;;;;4964720;28;20599;-73
2021/12/10 09:38:10;;;;;;;6.38;3.53;;;2.80;73.00;;;;;;4967282;28;20215;-72
2021/12/10 09:40:41;;;;;;;5.35;3.05;;;2.80;72.30;;;;;;4965285;28;20267;-72
2021/12/10 09:43:09;;;;;;;6.43;3.45;;;2.80;72.30;;;;;;4970167;28;20182;-74
2021/12/10 09:45:38;;;;;;;9.98;3.25;;;2.90;72.90;;;;;;4961810;28;20175;-73
2021/12/10 09:48:06;;;;;;;8.13;3.75;;;3.10;72.60;;;;;;4969838;28;20206;-72
2021/12/10 09:50:36;;;;;;;12.13;3.13;;;3.20;71.80;;;;;;4974519;28;20195;-72
2021/12/10 09:53:02;;;;;;;5.45;3.00;;;3.20;71.70;;;;;;5009838;28;20654;-74
2021/12/10 09:55:28;;;;;;;3.67;3.00;;;3.20;71.60;;;;;;4960644;28;20278;-73
2021/12/10 09:57:55;;;;;;;7.45;3.30;;;3.30;71.30;;;;;;4958111;28;20211;-73
2021/12/10 10:00:30;;;;;;;5.35;2.65;;;3.30;71.40;;;;;;4960801;28;20562;-72
2021/12/10 10:02:57;;;;;;;3.75;2.70;;;3.30;71.00;;;;;;4956824;28;20535;-75
2021/12/10 10:05:27;;;;;;;5.18;3.00;;;3.30;70.80;;;;;;4950182;28;20259;-74
2021/12/10 10:07:56;;;;;;;10.55;2.92;;;3.30;71.40;;;;;;4969124;28;20214;-73
2021/12/10 10:10:24;;;;;;;6.13;3.50;;;3.30;71.70;;;;;;4961104;28;20208;-73
2021/12/10 10:12:53;;;;;;;9.05;2.58;;;3.30;71.70;;;;;;4967201;28;20225;-73
2021/12/10 10:15:22;;;;;;;6.78;3.58;;;3.30;71.10;;;;;;4958249;28;20196;-74
2021/12/10 10:17:48;;;;;;;3.88;2.67;;;3.50;70.40;;;;;;5002643;28;20227;-73
2021/12/10 10:20:17;;;;;;;16.52;3.47;;;3.60;70.20;;;;;;4956367;28;20192;-73
2021/12/10 10:22:44;;;;;;;6.53;2.88;;;3.70;69.80;;;;;;4958936;28;20269;-72
2021/12/10 10:25:11;;;;;;;3.57;2.30;;;3.80;69.80;;;;;;4953880;28;20653;-74
2021/12/10 10:27:41;;;;;;;5.55;2.40;;;3.80;69.50;;;;;;4964993;28;20459;-74
2021/12/10 10:30:17;;;;;;;3.92;2.58;;;3.90;68.30;;;;;;4968474;28;20183;-73
2021/12/10 10:32:46;;;;;;;4.80;2.33;;;4.00;66.70;;;;;;4979727;28;20198;-73
2021/12/10 10:35:24;;;;;;;4.00;2.20;;;3.90;65.70;;;;;;5011751;28;20187;-74
2021/12/10 10:37:50;;;;;;;6.10;2.40;;;3.90;66.70;;;;;;4968308;28;20238;-73
2021/12/10 10:40:21;;;;;;;2.75;2.05;;;3.90;65.80;;;;;;4961727;28;20218;-73
2021/12/10 10:42:50;;;;;;;5.47;2.42;;;4.00;65.70;;;;;;4968925;28;20180;-75
2021/12/10 10:45:20;;;;;;;5.65;2.80;;;4.00;65.70;;;;;;4992523;28;20184;-75
2021/12/10 10:47:47;;;;;;;4.90;3.08;;;4.00;66.00;;;;;;4969330;28;20215;-75
2021/12/10 10:50:24;;;;;;;3.92;2.15;;;4.10;66.60;;;;;;4966505;28;20191;-73
2021/12/10 10:53:05;;;;;;;4.25;2.65;;;4.10;64.80;;;;;;4961100;28;20214;-73
2021/12/10 10:55:35;;;;;;;4.75;2.38;;;4.10;64.70;;;;;;4968093;28;20218;-73
2021/12/10 10:58:06;;;;;;;3.80;1.95;;;4.10;65.00;;;;;;4968831;28;20211;-73
2021/12/10 11:00:44;;;;;;;5.85;2.05;;;4.30;65.00;;;;;;4968102;28;20203;-73
2021/12/10 11:03:15;;;;;;;4.47;2.05;;;4.30;64.10;;;;;;4966947;28;20264;-74
2021/12/10 11:05:56;;;;;;;6.10;2.22;;;4.40;64.20;;;;;;4968789;28;20175;-73
2021/12/10 11:08:34;;;;;;;6.23;2.10;;;4.40;63.70;;;;;;4969357;28;20531;-73
2021/12/10 11:11:09;;;;;;;4.47;1.92;;;4.50;63.40;;;;;;4961868;28;20481;-74
2021/12/10 11:13:35;;;;;;;5.83;2.50;;;4.50;63.40;;;;;;4969596;28;20577;-73
2021/12/10 11:16:09;;;;;;;7.55;2.63;;;4.50;62.90;;;;;;4966456;28;20426;-73
2021/12/10 11:18:58;;;;;;;3.47;2.15;;;4.70;63.40;;;;;;4966147;28;20705;-75
2021/12/10 11:21:46;;;;;;;7.70;1.90;;;4.70;62.60;;;;;;4968287;28;20638;-74
2021/12/10 11:24:21;;;;;;;3.38;1.77;;;4.90;61.50;;;;;;4970317;28;20465;-73
2021/12/10 11:26:57;;;;;;;5.33;2.40;;;4.90;61.50;;;;;;4965452;28;20172;-74
2021/12/10 11:29:51;;;;;;;4.40;2.70;;;4.80;61.00;;;;;;4967673;28;20442;-74
2021/12/10 11:32:36;;;;;;;2.30;1.77;;;4.60;61.20;;;;;;4966768;28;20859;-73
2021/12/10 11:35:24;;;;;;;3.37;1.67;;;4.50;61.20;;;;;;4960874;28;20482;-73
2021/12/10 11:38:24;;;;;;;4.80;1.70;;;4.40;62.30;;;;;;4967623;28;21008;-74
2021/12/10 11:40:52;;;;;;;7.80;1.67;;;4.30;62.20;;;;;;4967571;28;20507;-74
2021/12/10 11:49:07;;;;;;;2.83;1.45;;;3.90;67.30;;;;;;4961446;28;20234;-75
2021/12/10 11:51:53;;;;;;;2.45;1.30;;;3.90;68.80;;;;;;4969335;28;20566;-73
2021/12/10 11:54:30;;;;;;;1.65;0.90;;;3.90;71.40;;;;;;4964899;28;20202;-74
2021/12/10 11:56:56;;;;;;;12.80;1.50;;;3.50;75.50;;;;;;4963313;28;20238;-74
2021/12/10 11:59:24;;;;;;;2.27;1.40;;;3.40;77.30;;;;;;4968499;28;20207;-72
2021/12/10 12:02:20;;;;;;;2.55;1.30;;;3.20;79.00;;;;;;4959291;28;20222;-72
2021/12/10 12:04:52;;;;;;;4.13;1.55;;;3.30;81.70;;;;;;4959287;28;20191;-74
2021/12/10 12:07:44;;;;;;;3.97;1.80;;;3.10;83.30;;;;;;4963435;28;20211;-73
2021/12/10 12:10:19;;;;;;;1.98;1.50;;;3.00;85.30;;;;;;4961533;28;20253;-74
2021/12/10 12:12:59;;;;;;;6.75;1.92;;;2.90;86.80;;;;;;4967713;28;20195;-74
2021/12/10 12:15:31;;;;;;;3.80;1.73;;;2.90;87.80;;;;;;4960134;28;20195;-74
2021/12/10 12:18:01;;;;;;;1.98;1.63;;;2.70;88.40;;;;;;4963430;28;20207;-73
2021/12/10 12:20:52;;;;;;;3.80;1.73;;;2.70;89.20;;;;;;4963558;28;20184;-73
2021/12/10 12:26:25;;;;;;;3.50;2.63;;;2.70;90.20;;;;;;4967083;28;20225;-73
2021/12/10 12:28:54;;;;;;;3.78;1.90;;;2.80;90.50;;;;;;4965753;28;20207;-74
2021/12/10 12:31:28;;;;;;;2.72;1.85;;;2.90;90.80;;;;;;4964046;28;20187;-73
2021/12/10 12:33:57;;;;;;;2.50;1.88;;;2.90;90.80;;;;;;4960333;28;20189;-74
2021/12/10 12:37:00;;;;;;;3.08;2.30;;;3.00;91.00;;;;;;4965171;28;20191;-73
2021/12/10 12:39:38;;;;;;;2.05;1.80;;;3.00;91.30;;;;;;4968105;28;20257;-72
2021/12/10 12:42:24;;;;;;;6.72;2.50;;;2.90;91.10;;;;;;4968366;28;20179;-73
2021/12/10 12:45:15;;;;;;;4.50;2.00;;;3.00;91.30;;;;;;4977853;28;20187;-73
2021/12/10 12:47:47;;;;;;;4.07;2.30;;;3.00;91.10;;;;;;4958375;28;20262;-73
2021/12/10 12:50:25;;;;;;;6.13;2.42;;;3.00;91.00;;;;;;4965530;28;20316;-72
2021/12/10 12:52:56;;;;;;;4.05;2.47;;;3.00;91.00;;;;;;4967145;28;20191;-72
2021/12/10 12:55:40;;;;;;;4.30;2.30;;;3.10;91.00;;;;;;4966330;28;20241;-74
2021/12/10 12:58:25;;;;;;;4.93;2.35;;;3.00;90.60;;;;;;4969980;28;20261;-73
2021/12/10 13:00:57;;;;;;;4.90;2.33;;;3.00;91.10;;;;;;4968995;28;20179;-73
2021/12/10 13:03:26;;;;;;;6.50;3.10;;;3.10;91.20;;;;;;4963901;28;20218;-73
2021/12/10 13:05:52;;;;;;;5.32;3.15;;;3.00;91.20;;;;;;5028601;28;20573;-74
2021/12/10 13:08:23;;;;;;;8.00;3.50;;;3.10;91.30;;;;;;4985505;28;20202;-71
2021/12/10 13:11:08;;;;;;;5.45;2.70;;;3.20;91.40;;;;;;5041197;28;20442;-72
2021/12/10 13:13:45;;;;;;;6.38;3.33;;;3.30;91.40;;;;;;4963630;28;20214;-73
2021/12/10 13:16:13;;;;;;;6.45;2.75;;;3.40;91.20;;;;;;4980573;28;20751;-72
2021/12/10 13:18:42;;;;;;;3.83;2.53;;;3.40;91.20;;;;;;4969822;28;20215;-74
2021/12/10 13:21:13;;;;;;;4.68;2.83;;;3.50;90.90;;;;;;4969224;28;20209;-73
2021/12/10 13:23:39;;;;;;;3.97;2.53;;;3.40;90.30;;;;;;4967325;28;20199;-72